Terminal Aerodrome Forecast
Issued by NWS Twin Cities, MN

Home | Current Version | Previous Version | Graphics & Text | Print | Product List | Glossary On
Versions: 1 2 3 4 5 6 7 8 9 10 11 12 13 14 15 16 17 18 19 20 21 22 23 24 25 26 27 28 29 30
000
FTUS43 KMPX 180200 AAA
TAFMSP
TAF AMD
KMSP 180253Z 1803/1906 33012KT P6SM SCT025 BKN040
     FM180500 34010KT P6SM OVC025
     FM181500 36006KT P6SM SCT025
     FM181800 VRB03KT P6SM SKC
     FM190300 17004KT P6SM SCT250=

USA.gov is the U.S. government's official web portal to all federal, state and local government web resources and services.